sensor_id;sensor_type;location;lat;lon;timestamp;P1;durP1;ratioP1;P2;durP2;ratioP2
57025;SDS011;43961;52.940;6.834;2024-03-17T00:02:21;33.45;;;17.70;;
57025;SDS011;43961;52.940;6.834;2024-03-17T00:04:47;35.65;;;18.17;;
57025;SDS011;43961;52.940;6.834;2024-03-17T00:07:13;50.90;;;21.38;;
57025;SDS011;43961;52.940;6.834;2024-03-17T00:09:39;54.83;;;21.23;;
57025;SDS011;43961;52.940;6.834;2024-03-17T00:12:05;58.90;;;20.95;;
57025;SDS011;43961;52.940;6.834;2024-03-17T00:14:32;44.33;;;21.92;;
57025;SDS011;43961;52.940;6.834;2024-03-17T00:16:59;59.38;;;22.30;;
57025;SDS011;43961;52.940;6.834;2024-03-17T00:19:25;41.30;;;19.15;;
57025;SDS011;43961;52.940;6.834;2024-03-17T00:21:51;40.90;;;18.02;;
57025;SDS011;43961;52.940;6.834;2024-03-17T00:24:18;40.67;;;18.25;;
57025;SDS011;43961;52.940;6.834;2024-03-17T00:26:44;44.45;;;18.33;;
57025;SDS011;43961;52.940;6.834;2024-03-17T00:29:10;32.78;;;17.58;;
57025;SDS011;43961;52.940;6.834;2024-03-17T00:31:36;37.75;;;17.60;;
57025;SDS011;43961;52.940;6.834;2024-03-17T00:34:02;35.50;;;16.30;;
57025;SDS011;43961;52.940;6.834;2024-03-17T00:36:30;44.65;;;17.75;;
57025;SDS011;43961;52.940;6.834;2024-03-17T00:38:56;45.85;;;17.27;;
57025;SDS011;43961;52.940;6.834;2024-03-17T00:41:22;41.10;;;16.75;;
57025;SDS011;43961;52.940;6.834;2024-03-17T00:43:48;46.38;;;16.88;;
57025;SDS011;43961;52.940;6.834;2024-03-17T00:46:15;48.97;;;16.17;;
57025;SDS011;43961;52.940;6.834;2024-03-17T00:48:40;39.55;;;16.63;;
57025;SDS011;43961;52.940;6.834;2024-03-17T00:51:06;38.38;;;17.95;;
57025;SDS011;43961;52.940;6.834;2024-03-17T00:53:32;45.15;;;18.60;;
57025;SDS011;43961;52.940;6.834;2024-03-17T00:55:57;59.13;;;19.50;;
57025;SDS011;43961;52.940;6.834;2024-03-17T00:58:23;43.25;;;18.77;;
57025;SDS011;43961;52.940;6.834;2024-03-17T01:00:49;40.55;;;19.60;;
57025;SDS011;43961;52.940;6.834;2024-03-17T01:03:15;52.28;;;18.95;;
57025;SDS011;43961;52.940;6.834;2024-03-17T01:05:41;39.78;;;17.70;;
57025;SDS011;43961;52.940;6.834;2024-03-17T01:08:09;40.70;;;20.00;;
57025;SDS011;43961;52.940;6.834;2024-03-17T01:10:39;41.63;;;17.85;;
57025;SDS011;43961;52.940;6.834;2024-03-17T01:13:08;51.55;;;19.30;;
57025;SDS011;43961;52.940;6.834;2024-03-17T01:15:38;36.22;;;16.60;;
57025;SDS011;43961;52.940;6.834;2024-03-17T01:18:04;41.92;;;18.15;;
57025;SDS011;43961;52.940;6.834;2024-03-17T01:20:31;48.15;;;20.15;;
57025;SDS011;43961;52.940;6.834;2024-03-17T01:22:58;40.58;;;18.77;;
57025;SDS011;43961;52.940;6.834;2024-03-17T01:25:24;28.55;;;15.95;;
57025;SDS011;43961;52.940;6.834;2024-03-17T01:27:54;32.40;;;15.65;;
57025;SDS011;43961;52.940;6.834;2024-03-17T01:30:20;31.13;;;15.38;;
57025;SDS011;43961;52.940;6.834;2024-03-17T01:32:46;36.78;;;14.85;;
57025;SDS011;43961;52.940;6.834;2024-03-17T01:35:12;38.45;;;16.00;;
57025;SDS011;43961;52.940;6.834;2024-03-17T01:37:38;29.05;;;14.30;;
57025;SDS011;43961;52.940;6.834;2024-03-17T01:40:04;22.15;;;10.05;;
57025;SDS011;43961;52.940;6.834;2024-03-17T01:42:38;20.35;;;9.75;;
57025;SDS011;43961;52.940;6.834;2024-03-17T01:47:50;22.50;;;10.55;;
57025;SDS011;43961;52.940;6.834;2024-03-17T01:50:16;22.80;;;10.00;;
57025;SDS011;43961;52.940;6.834;2024-03-17T01:55:11;21.88;;;10.30;;
57025;SDS011;43961;52.940;6.834;2024-03-17T01:57:37;25.83;;;11.82;;
57025;SDS011;43961;52.940;6.834;2024-03-17T02:00:05;28.15;;;12.30;;
57025;SDS011;43961;52.940;6.834;2024-03-17T02:02:33;29.08;;;12.82;;
57025;SDS011;43961;52.940;6.834;2024-03-17T02:04:59;28.63;;;13.75;;
57025;SDS011;43961;52.940;6.834;2024-03-17T02:07:25;33.97;;;14.80;;
57025;SDS011;43961;52.940;6.834;2024-03-17T02:09:51;35.65;;;14.27;;
57025;SDS011;43961;52.940;6.834;2024-03-17T02:12:16;26.83;;;13.98;;
57025;SDS011;43961;52.940;6.834;2024-03-17T02:14:42;27.90;;;14.80;;
57025;SDS011;43961;52.940;6.834;2024-03-17T02:17:08;34.60;;;14.90;;
57025;SDS011;43961;52.940;6.834;2024-03-17T02:19:33;35.92;;;15.65;;
57025;SDS011;43961;52.940;6.834;2024-03-17T02:21:59;48.53;;;15.82;;
57025;SDS011;43961;52.940;6.834;2024-03-17T02:24:25;29.35;;;13.60;;
57025;SDS011;43961;52.940;6.834;2024-03-17T02:26:51;28.17;;;14.15;;
57025;SDS011;43961;52.940;6.834;2024-03-17T02:29:17;28.55;;;13.27;;
57025;SDS011;43961;52.940;6.834;2024-03-17T02:31:42;27.40;;;14.48;;
57025;SDS011;43961;52.940;6.834;2024-03-17T02:34:08;34.80;;;15.38;;
57025;SDS011;43961;52.940;6.834;2024-03-17T02:36:34;29.33;;;13.55;;
57025;SDS011;43961;52.940;6.834;2024-03-17T02:38:59;35.65;;;14.93;;
57025;SDS011;43961;52.940;6.834;2024-03-17T02:41:43;31.00;;;14.75;;
57025;SDS011;43961;52.940;6.834;2024-03-17T02:44:11;31.38;;;14.57;;
57025;SDS011;43961;52.940;6.834;2024-03-17T02:46:37;29.83;;;12.88;;
57025;SDS011;43961;52.940;6.834;2024-03-17T02:49:02;27.20;;;13.60;;
57025;SDS011;43961;52.940;6.834;2024-03-17T02:51:28;31.67;;;14.02;;
57025;SDS011;43961;52.940;6.834;2024-03-17T02:53:54;26.58;;;14.70;;
57025;SDS011;43961;52.940;6.834;2024-03-17T02:56:20;40.08;;;15.38;;
57025;SDS011;43961;52.940;6.834;2024-03-17T02:58:46;34.72;;;15.57;;
57025;SDS011;43961;52.940;6.834;2024-03-17T03:01:13;36.10;;;16.13;;
57025;SDS011;43961;52.940;6.834;2024-03-17T03:03:43;35.45;;;16.50;;
57025;SDS011;43961;52.940;6.834;2024-03-17T03:06:08;29.25;;;17.02;;
57025;SDS011;43961;52.940;6.834;2024-03-17T03:08:36;7.90;;;4.68;;
57025;SDS011;43961;52.940;6.834;2024-03-17T03:11:10;30.75;;;16.52;;
57025;SDS011;43961;52.940;6.834;2024-03-17T03:13:40;35.92;;;17.23;;
57025;SDS011;43961;52.940;6.834;2024-03-17T03:16:09;38.85;;;19.27;;
57025;SDS011;43961;52.940;6.834;2024-03-17T03:18:37;43.85;;;18.00;;
57025;SDS011;43961;52.940;6.834;2024-03-17T03:21:04;34.38;;;13.75;;
57025;SDS011;43961;52.940;6.834;2024-03-17T03:23:30;28.85;;;14.75;;
57025;SDS011;43961;52.940;6.834;2024-03-17T03:25:56;31.95;;;14.73;;
57025;SDS011;43961;52.940;6.834;2024-03-17T03:28:23;25.95;;;12.23;;
57025;SDS011;43961;52.940;6.834;2024-03-17T03:30:49;23.95;;;13.75;;
57025;SDS011;43961;52.940;6.834;2024-03-17T03:33:16;22.85;;;12.45;;
57025;SDS011;43961;52.940;6.834;2024-03-17T03:35:43;25.50;;;12.75;;
57025;SDS011;43961;52.940;6.834;2024-03-17T03:38:09;21.48;;;12.60;;
57025;SDS011;43961;52.940;6.834;2024-03-17T03:40:34;29.23;;;16.38;;
57025;SDS011;43961;52.940;6.834;2024-03-17T03:43:00;25.88;;;16.08;;
57025;SDS011;43961;52.940;6.834;2024-03-17T03:45:26;31.13;;;16.90;;
57025;SDS011;43961;52.940;6.834;2024-03-17T03:47:51;37.33;;;17.35;;
57025;SDS011;43961;52.940;6.834;2024-03-17T03:50:20;31.75;;;18.45;;
57025;SDS011;43961;52.940;6.834;2024-03-17T03:52:46;45.13;;;20.60;;
57025;SDS011;43961;52.940;6.834;2024-03-17T03:55:12;36.90;;;18.98;;
57025;SDS011;43961;52.940;6.834;2024-03-17T03:57:41;37.38;;;20.33;;
57025;SDS011;43961;52.940;6.834;2024-03-17T04:00:07;34.97;;;20.10;;
57025;SDS011;43961;52.940;6.834;2024-03-17T04:02:40;46.80;;;20.58;;
57025;SDS011;43961;52.940;6.834;2024-03-17T04:05:07;28.13;;;19.90;;
57025;SDS011;43961;52.940;6.834;2024-03-17T04:07:34;29.13;;;19.42;;
57025;SDS011;43961;52.940;6.834;2024-03-17T04:10:01;31.88;;;18.38;;
57025;SDS011;43961;52.940;6.834;2024-03-17T04:12:27;37.50;;;20.77;;
57025;SDS011;43961;52.940;6.834;2024-03-17T04:14:53;25.00;;;16.80;;
57025;SDS011;43961;52.940;6.834;2024-03-17T04:17:20;22.77;;;15.48;;
57025;SDS011;43961;52.940;6.834;2024-03-17T04:19:47;25.88;;;15.43;;
57025;SDS011;43961;52.940;6.834;2024-03-17T04:22:16;23.65;;;14.63;;
57025;SDS011;43961;52.940;6.834;2024-03-17T04:24:42;21.52;;;14.48;;
57025;SDS011;43961;52.940;6.834;2024-03-17T04:27:08;24.05;;;14.77;;
57025;SDS011;43961;52.940;6.834;2024-03-17T04:29:34;27.58;;;15.55;;
57025;SDS011;43961;52.940;6.834;2024-03-17T04:32:00;32.65;;;16.38;;
57025;SDS011;43961;52.940;6.834;2024-03-17T04:34:26;33.55;;;17.70;;
57025;SDS011;43961;52.940;6.834;2024-03-17T04:36:52;35.65;;;18.95;;
57025;SDS011;43961;52.940;6.834;2024-03-17T04:39:19;39.40;;;21.48;;
57025;SDS011;43961;52.940;6.834;2024-03-17T04:41:45;37.83;;;22.67;;
57025;SDS011;43961;52.940;6.834;2024-03-17T04:44:12;47.17;;;23.83;;
57025;SDS011;43961;52.940;6.834;2024-03-17T04:46:37;36.25;;;23.40;;
57025;SDS011;43961;52.940;6.834;2024-03-17T04:49:03;38.08;;;23.13;;
57025;SDS011;43961;52.940;6.834;2024-03-17T04:51:29;43.30;;;24.45;;
57025;SDS011;43961;52.940;6.834;2024-03-17T04:53:54;39.60;;;25.02;;
57025;SDS011;43961;52.940;6.834;2024-03-17T04:56:20;37.38;;;24.73;;
57025;SDS011;43961;52.940;6.834;2024-03-17T04:58:46;47.08;;;26.95;;
57025;SDS011;43961;52.940;6.834;2024-03-17T05:01:13;43.42;;;28.88;;
57025;SDS011;43961;52.940;6.834;2024-03-17T05:03:38;48.00;;;28.27;;
57025;SDS011;43961;52.940;6.834;2024-03-17T05:06:04;40.50;;;26.60;;
57025;SDS011;43961;52.940;6.834;2024-03-17T05:08:31;46.10;;;31.30;;
57025;SDS011;43961;52.940;6.834;2024-03-17T05:11:01;53.45;;;32.05;;
57025;SDS011;43961;52.940;6.834;2024-03-17T05:13:30;43.92;;;29.80;;
57025;SDS011;43961;52.940;6.834;2024-03-17T05:15:59;49.55;;;32.08;;
57025;SDS011;43961;52.940;6.834;2024-03-17T05:18:26;47.70;;;29.15;;
57025;SDS011;43961;52.940;6.834;2024-03-17T05:20:58;49.67;;;30.95;;
57025;SDS011;43961;52.940;6.834;2024-03-17T05:23:29;46.20;;;30.80;;
57025;SDS011;43961;52.940;6.834;2024-03-17T05:25:56;47.95;;;31.30;;
57025;SDS011;43961;52.940;6.834;2024-03-17T05:28:23;46.85;;;32.70;;
57025;SDS011;43961;52.940;6.834;2024-03-17T05:30:50;50.78;;;32.72;;
57025;SDS011;43961;52.940;6.834;2024-03-17T05:33:19;48.30;;;33.35;;
57025;SDS011;43961;52.940;6.834;2024-03-17T05:35:56;44.67;;;30.70;;
57025;SDS011;43961;52.940;6.834;2024-03-17T05:38:23;49.38;;;31.15;;
57025;SDS011;43961;52.940;6.834;2024-03-17T05:40:53;41.92;;;32.05;;
57025;SDS011;43961;52.940;6.834;2024-03-17T05:43:20;52.38;;;30.92;;
57025;SDS011;43961;52.940;6.834;2024-03-17T05:45:48;45.15;;;29.27;;
57025;SDS011;43961;52.940;6.834;2024-03-17T05:48:14;43.85;;;31.45;;
57025;SDS011;43961;52.940;6.834;2024-03-17T05:50:39;52.90;;;32.40;;
57025;SDS011;43961;52.940;6.834;2024-03-17T05:53:06;50.53;;;30.50;;
57025;SDS011;43961;52.940;6.834;2024-03-17T05:55:31;44.53;;;32.22;;
57025;SDS011;43961;52.940;6.834;2024-03-17T05:58:00;65.78;;;36.17;;
57025;SDS011;43961;52.940;6.834;2024-03-17T06:00:26;60.10;;;35.55;;
57025;SDS011;43961;52.940;6.834;2024-03-17T06:02:52;65.35;;;35.42;;
57025;SDS011;43961;52.940;6.834;2024-03-17T06:05:17;67.63;;;37.33;;
57025;SDS011;43961;52.940;6.834;2024-03-17T06:07:43;54.42;;;38.42;;
57025;SDS011;43961;52.940;6.834;2024-03-17T06:10:09;64.43;;;38.60;;
57025;SDS011;43961;52.940;6.834;2024-03-17T06:12:34;60.30;;;37.78;;
57025;SDS011;43961;52.940;6.834;2024-03-17T06:15:00;50.63;;;37.65;;
57025;SDS011;43961;52.940;6.834;2024-03-17T06:17:28;19.90;;;8.23;;
57025;SDS011;43961;52.940;6.834;2024-03-17T06:19:53;61.35;;;35.53;;
57025;SDS011;43961;52.940;6.834;2024-03-17T06:22:19;62.15;;;33.80;;
57025;SDS011;43961;52.940;6.834;2024-03-17T06:24:44;52.22;;;35.33;;
57025;SDS011;43961;52.940;6.834;2024-03-17T06:27:10;52.10;;;32.65;;
57025;SDS011;43961;52.940;6.834;2024-03-17T06:29:35;59.55;;;33.78;;
57025;SDS011;43961;52.940;6.834;2024-03-17T06:32:01;75.00;;;34.25;;
57025;SDS011;43961;52.940;6.834;2024-03-17T06:34:27;61.40;;;34.30;;
57025;SDS011;43961;52.940;6.834;2024-03-17T06:36:52;54.15;;;35.63;;
57025;SDS011;43961;52.940;6.834;2024-03-17T06:39:18;60.50;;;33.40;;
57025;SDS011;43961;52.940;6.834;2024-03-17T06:41:46;59.03;;;34.13;;
57025;SDS011;43961;52.940;6.834;2024-03-17T06:44:11;63.58;;;34.45;;
57025;SDS011;43961;52.940;6.834;2024-03-17T06:46:37;67.10;;;35.30;;
57025;SDS011;43961;52.940;6.834;2024-03-17T06:49:04;68.93;;;34.45;;
57025;SDS011;43961;52.940;6.834;2024-03-17T06:51:29;67.82;;;37.88;;
57025;SDS011;43961;52.940;6.834;2024-03-17T06:53:55;63.60;;;35.75;;
57025;SDS011;43961;52.940;6.834;2024-03-17T06:56:20;64.90;;;35.17;;
57025;SDS011;43961;52.940;6.834;2024-03-17T06:58:46;77.43;;;34.78;;
57025;SDS011;43961;52.940;6.834;2024-03-17T07:01:12;77.22;;;34.65;;
57025;SDS011;43961;52.940;6.834;2024-03-17T07:03:37;64.65;;;33.47;;
57025;SDS011;43961;52.940;6.834;2024-03-17T07:06:03;77.10;;;34.70;;
57025;SDS011;43961;52.940;6.834;2024-03-17T07:08:30;67.00;;;33.50;;
57025;SDS011;43961;52.940;6.834;2024-03-17T07:13:28;53.97;;;30.45;;
57025;SDS011;43961;52.940;6.834;2024-03-17T07:15:55;63.72;;;30.63;;
57025;SDS011;43961;52.940;6.834;2024-03-17T07:18:21;64.88;;;30.08;;
57025;SDS011;43961;52.940;6.834;2024-03-17T07:20:46;57.63;;;29.42;;
57025;SDS011;43961;52.940;6.834;2024-03-17T07:23:13;66.07;;;29.75;;
57025;SDS011;43961;52.940;6.834;2024-03-17T07:25:40;66.45;;;27.98;;
57025;SDS011;43961;52.940;6.834;2024-03-17T07:28:08;68.70;;;29.98;;
57025;SDS011;43961;52.940;6.834;2024-03-17T07:30:34;57.70;;;27.02;;
57025;SDS011;43961;52.940;6.834;2024-03-17T07:33:00;51.95;;;27.23;;
57025;SDS011;43961;52.940;6.834;2024-03-17T07:35:26;48.60;;;25.15;;
57025;SDS011;43961;52.940;6.834;2024-03-17T07:37:52;52.30;;;28.95;;
57025;SDS011;43961;52.940;6.834;2024-03-17T07:40:17;59.97;;;25.20;;
57025;SDS011;43961;52.940;6.834;2024-03-17T07:42:43;53.35;;;22.40;;
57025;SDS011;43961;52.940;6.834;2024-03-17T07:45:10;49.45;;;23.45;;
57025;SDS011;43961;52.940;6.834;2024-03-17T07:47:36;50.35;;;25.05;;
57025;SDS011;43961;52.940;6.834;2024-03-17T07:50:02;66.75;;;26.23;;
57025;SDS011;43961;52.940;6.834;2024-03-17T07:52:31;48.95;;;22.67;;
57025;SDS011;43961;52.940;6.834;2024-03-17T07:54:57;49.30;;;23.58;;
57025;SDS011;43961;52.940;6.834;2024-03-17T07:57:23;48.45;;;23.30;;
57025;SDS011;43961;52.940;6.834;2024-03-17T07:59:51;41.88;;;22.40;;
57025;SDS011;43961;52.940;6.834;2024-03-17T08:02:17;42.03;;;21.25;;
57025;SDS011;43961;52.940;6.834;2024-03-17T08:04:43;57.00;;;21.63;;
57025;SDS011;43961;52.940;6.834;2024-03-17T08:07:12;48.25;;;21.48;;
57025;SDS011;43961;52.940;6.834;2024-03-17T08:09:37;41.75;;;19.58;;
57025;SDS011;43961;52.940;6.834;2024-03-17T08:12:03;35.97;;;19.60;;
57025;SDS011;43961;52.940;6.834;2024-03-17T08:14:29;35.03;;;19.55;;
57025;SDS011;43961;52.940;6.834;2024-03-17T08:16:56;39.50;;;18.95;;
57025;SDS011;43961;52.940;6.834;2024-03-17T08:19:21;44.88;;;18.05;;
57025;SDS011;43961;52.940;6.834;2024-03-17T08:21:47;38.33;;;17.17;;
57025;SDS011;43961;52.940;6.834;2024-03-17T08:24:12;35.63;;;16.80;;
57025;SDS011;43961;52.940;6.834;2024-03-17T08:26:38;36.95;;;16.88;;
57025;SDS011;43961;52.940;6.834;2024-03-17T08:29:05;36.40;;;17.33;;
57025;SDS011;43961;52.940;6.834;2024-03-17T08:31:32;38.53;;;16.38;;
57025;SDS011;43961;52.940;6.834;2024-03-17T08:33:58;41.55;;;15.02;;
57025;SDS011;43961;52.940;6.834;2024-03-17T08:36:24;39.20;;;16.63;;
57025;SDS011;43961;52.940;6.834;2024-03-17T08:38:49;33.28;;;14.27;;
57025;SDS011;43961;52.940;6.834;2024-03-17T08:41:15;32.92;;;14.75;;
57025;SDS011;43961;52.940;6.834;2024-03-17T08:43:41;31.17;;;14.20;;
57025;SDS011;43961;52.940;6.834;2024-03-17T08:46:08;36.17;;;15.73;;
57025;SDS011;43961;52.940;6.834;2024-03-17T08:48:36;35.33;;;16.63;;
57025;SDS011;43961;52.940;6.834;2024-03-17T08:51:04;42.33;;;14.75;;
57025;SDS011;43961;52.940;6.834;2024-03-17T08:53:30;43.45;;;16.95;;
57025;SDS011;43961;52.940;6.834;2024-03-17T08:55:57;48.95;;;16.77;;
57025;SDS011;43961;52.940;6.834;2024-03-17T08:58:23;44.17;;;16.70;;
57025;SDS011;43961;52.940;6.834;2024-03-17T09:00:49;32.28;;;15.68;;
57025;SDS011;43961;52.940;6.834;2024-03-17T09:03:16;32.25;;;15.68;;
57025;SDS011;43961;52.940;6.834;2024-03-17T09:05:43;31.70;;;16.88;;
57025;SDS011;43961;52.940;6.834;2024-03-17T09:08:19;35.90;;;16.70;;
57025;SDS011;43961;52.940;6.834;2024-03-17T09:10:47;43.75;;;17.83;;
57025;SDS011;43961;52.940;6.834;2024-03-17T09:13:14;36.78;;;18.65;;
57025;SDS011;43961;52.940;6.834;2024-03-17T09:18:19;33.92;;;17.00;;
57025;SDS011;43961;52.940;6.834;2024-03-17T09:20:45;30.70;;;17.80;;
57025;SDS011;43961;52.940;6.834;2024-03-17T09:23:11;41.30;;;18.95;;
57025;SDS011;43961;52.940;6.834;2024-03-17T09:25:37;38.25;;;18.27;;
57025;SDS011;43961;52.940;6.834;2024-03-17T09:28:03;38.85;;;18.50;;
57025;SDS011;43961;52.940;6.834;2024-03-17T09:30:29;33.63;;;16.70;;
57025;SDS011;43961;52.940;6.834;2024-03-17T09:32:54;35.53;;;18.67;;
57025;SDS011;43961;52.940;6.834;2024-03-17T09:35:20;39.10;;;19.35;;
57025;SDS011;43961;52.940;6.834;2024-03-17T09:37:46;41.67;;;17.17;;
57025;SDS011;43961;52.940;6.834;2024-03-17T09:40:14;34.88;;;18.20;;
57025;SDS011;43961;52.940;6.834;2024-03-17T09:42:41;39.92;;;19.15;;
57025;SDS011;43961;52.940;6.834;2024-03-17T09:45:10;35.15;;;19.23;;
57025;SDS011;43961;52.940;6.834;2024-03-17T09:47:36;38.50;;;19.17;;
57025;SDS011;43961;52.940;6.834;2024-03-17T09:50:02;36.13;;;18.42;;
57025;SDS011;43961;52.940;6.834;2024-03-17T09:52:28;31.60;;;18.10;;
57025;SDS011;43961;52.940;6.834;2024-03-17T09:54:59;36.25;;;17.52;;
57025;SDS011;43961;52.940;6.834;2024-03-17T09:57:26;32.40;;;17.45;;
57025;SDS011;43961;52.940;6.834;2024-03-17T09:59:55;51.45;;;21.98;;
57025;SDS011;43961;52.940;6.834;2024-03-17T10:02:21;37.33;;;21.42;;
57025;SDS011;43961;52.940;6.834;2024-03-17T10:04:47;37.97;;;20.08;;
57025;SDS011;43961;52.940;6.834;2024-03-17T10:07:13;46.05;;;21.63;;
57025;SDS011;43961;52.940;6.834;2024-03-17T10:09:40;34.47;;;20.10;;
57025;SDS011;43961;52.940;6.834;2024-03-17T10:12:23;40.15;;;23.20;;
57025;SDS011;43961;52.940;6.834;2024-03-17T10:14:57;30.02;;;20.88;;
57025;SDS011;43961;52.940;6.834;2024-03-17T10:17:31;42.15;;;23.25;;
57025;SDS011;43961;52.940;6.834;2024-03-17T10:23:04;46.38;;;22.60;;
57025;SDS011;43961;52.940;6.834;2024-03-17T10:25:42;45.53;;;23.20;;
57025;SDS011;43961;52.940;6.834;2024-03-17T10:28:11;42.88;;;25.48;;
57025;SDS011;43961;52.940;6.834;2024-03-17T10:30:39;41.03;;;24.10;;
57025;SDS011;43961;52.940;6.834;2024-03-17T10:33:05;37.17;;;22.97;;
57025;SDS011;43961;52.940;6.834;2024-03-17T10:35:35;41.38;;;23.63;;
57025;SDS011;43961;52.940;6.834;2024-03-17T10:38:04;48.80;;;24.88;;
57025;SDS011;43961;52.940;6.834;2024-03-17T10:40:32;37.20;;;24.38;;
57025;SDS011;43961;52.940;6.834;2024-03-17T10:43:01;39.40;;;25.17;;
57025;SDS011;43961;52.940;6.834;2024-03-17T10:45:27;37.45;;;23.88;;
57025;SDS011;43961;52.940;6.834;2024-03-17T10:48:00;36.78;;;23.02;;
57025;SDS011;43961;52.940;6.834;2024-03-17T10:50:30;43.22;;;23.48;;
57025;SDS011;43961;52.940;6.834;2024-03-17T10:52:58;38.72;;;24.75;;
57025;SDS011;43961;52.940;6.834;2024-03-17T10:55:28;40.70;;;23.20;;
57025;SDS011;43961;52.940;6.834;2024-03-17T10:58:00;37.72;;;22.13;;
57025;SDS011;43961;52.940;6.834;2024-03-17T11:00:30;32.33;;;23.27;;
57025;SDS011;43961;52.940;6.834;2024-03-17T11:02:57;32.67;;;23.25;;
57025;SDS011;43961;52.940;6.834;2024-03-17T11:05:24;41.15;;;23.33;;
57025;SDS011;43961;52.940;6.834;2024-03-17T11:07:54;32.60;;;22.45;;
57025;SDS011;43961;52.940;6.834;2024-03-17T11:10:29;31.97;;;22.40;;
57025;SDS011;43961;52.940;6.834;2024-03-17T11:13:02;42.88;;;24.02;;
57025;SDS011;43961;52.940;6.834;2024-03-17T11:20:42;35.95;;;23.52;;
57025;SDS011;43961;52.940;6.834;2024-03-17T11:23:26;35.53;;;23.75;;
57025;SDS011;43961;52.940;6.834;2024-03-17T11:25:55;37.70;;;23.80;;
57025;SDS011;43961;52.940;6.834;2024-03-17T11:31:31;38.47;;;22.48;;
57025;SDS011;43961;52.940;6.834;2024-03-17T11:36:56;31.70;;;23.40;;
57025;SDS011;43961;52.940;6.834;2024-03-17T11:44:58;37.70;;;25.73;;
57025;SDS011;43961;52.940;6.834;2024-03-17T11:47:35;34.43;;;24.80;;
57025;SDS011;43961;52.940;6.834;2024-03-17T11:50:03;38.00;;;23.83;;
57025;SDS011;43961;52.940;6.834;2024-03-17T11:52:30;42.28;;;28.13;;
57025;SDS011;43961;52.940;6.834;2024-03-17T11:54:55;37.40;;;25.95;;
57025;SDS011;43961;52.940;6.834;2024-03-17T11:57:22;45.42;;;29.65;;
57025;SDS011;43961;52.940;6.834;2024-03-17T11:59:49;46.22;;;28.52;;
57025;SDS011;43961;52.940;6.834;2024-03-17T12:02:22;39.92;;;27.27;;
57025;SDS011;43961;52.940;6.834;2024-03-17T12:04:51;42.58;;;28.90;;
57025;SDS011;43961;52.940;6.834;2024-03-17T12:07:22;47.72;;;28.17;;
57025;SDS011;43961;52.940;6.834;2024-03-17T12:09:49;41.58;;;27.25;;
57025;SDS011;43961;52.940;6.834;2024-03-17T12:12:19;37.92;;;26.30;;
57025;SDS011;43961;52.940;6.834;2024-03-17T12:14:47;40.30;;;26.67;;
57025;SDS011;43961;52.940;6.834;2024-03-17T12:17:14;41.15;;;25.70;;
57025;SDS011;43961;52.940;6.834;2024-03-17T12:19:47;35.58;;;24.52;;
57025;SDS011;43961;52.940;6.834;2024-03-17T12:22:19;33.50;;;23.73;;
57025;SDS011;43961;52.940;6.834;2024-03-17T12:24:49;39.15;;;27.33;;
57025;SDS011;43961;52.940;6.834;2024-03-17T12:27:21;36.75;;;25.83;;
57025;SDS011;43961;52.940;6.834;2024-03-17T12:29:48;36.72;;;25.48;;
57025;SDS011;43961;52.940;6.834;2024-03-17T12:32:18;32.20;;;24.48;;
57025;SDS011;43961;52.940;6.834;2024-03-17T12:34:57;42.13;;;26.50;;
57025;SDS011;43961;52.940;6.834;2024-03-17T12:37:24;36.17;;;24.17;;
57025;SDS011;43961;52.940;6.834;2024-03-17T12:39:56;35.05;;;24.65;;
57025;SDS011;43961;52.940;6.834;2024-03-17T12:42:23;29.65;;;21.65;;
57025;SDS011;43961;52.940;6.834;2024-03-17T12:44:59;36.30;;;22.17;;
57025;SDS011;43961;52.940;6.834;2024-03-17T12:47:29;34.10;;;22.48;;
57025;SDS011;43961;52.940;6.834;2024-03-17T12:49:56;31.95;;;23.40;;
57025;SDS011;43961;52.940;6.834;2024-03-17T12:52:24;30.20;;;22.77;;
57025;SDS011;43961;52.940;6.834;2024-03-17T12:54:58;35.85;;;22.23;;
57025;SDS011;43961;52.940;6.834;2024-03-17T12:57:42;34.88;;;22.77;;
57025;SDS011;43961;52.940;6.834;2024-03-17T13:00:27;35.53;;;22.30;;
57025;SDS011;43961;52.940;6.834;2024-03-17T13:02:56;32.60;;;23.17;;
57025;SDS011;43961;52.940;6.834;2024-03-17T13:05:21;33.00;;;22.73;;
57025;SDS011;43961;52.940;6.834;2024-03-17T13:07:48;35.25;;;22.83;;
57025;SDS011;43961;52.940;6.834;2024-03-17T13:10:14;37.15;;;22.92;;
57025;SDS011;43961;52.940;6.834;2024-03-17T13:12:41;36.42;;;23.58;;
57025;SDS011;43961;52.940;6.834;2024-03-17T13:15:14;34.83;;;22.98;;
57025;SDS011;43961;52.940;6.834;2024-03-17T13:17:41;37.53;;;23.05;;
57025;SDS011;43961;52.940;6.834;2024-03-17T13:20:14;27.58;;;20.08;;
57025;SDS011;43961;52.940;6.834;2024-03-17T13:22:44;29.63;;;23.48;;
57025;SDS011;43961;52.940;6.834;2024-03-17T13:25:17;37.92;;;22.83;;
57025;SDS011;43961;52.940;6.834;2024-03-17T13:28:03;36.08;;;22.73;;
57025;SDS011;43961;52.940;6.834;2024-03-17T13:30:29;30.02;;;21.42;;
57025;SDS011;43961;52.940;6.834;2024-03-17T13:32:56;33.65;;;22.17;;
57025;SDS011;43961;52.940;6.834;2024-03-17T13:35:25;27.15;;;21.35;;
57025;SDS011;43961;52.940;6.834;2024-03-17T13:37:52;37.67;;;21.70;;
57025;SDS011;43961;52.940;6.834;2024-03-17T13:40:19;32.35;;;22.48;;
57025;SDS011;43961;52.940;6.834;2024-03-17T13:42:46;29.70;;;24.63;;
57025;SDS011;43961;52.940;6.834;2024-03-17T13:45:13;31.13;;;21.98;;
57025;SDS011;43961;52.940;6.834;2024-03-17T13:47:40;25.15;;;20.27;;
57025;SDS011;43961;52.940;6.834;2024-03-17T13:50:06;32.83;;;20.05;;
57025;SDS011;43961;52.940;6.834;2024-03-17T13:52:37;30.05;;;20.45;;
57025;SDS011;43961;52.940;6.834;2024-03-17T13:55:06;30.65;;;21.48;;
57025;SDS011;43961;52.940;6.834;2024-03-17T13:57:44;26.45;;;20.02;;
57025;SDS011;43961;52.940;6.834;2024-03-17T14:00:19;29.38;;;22.02;;
57025;SDS011;43961;52.940;6.834;2024-03-17T14:02:46;32.28;;;21.13;;
57025;SDS011;43961;52.940;6.834;2024-03-17T14:05:13;29.80;;;21.15;;
57025;SDS011;43961;52.940;6.834;2024-03-17T14:07:40;26.33;;;19.93;;
57025;SDS011;43961;52.940;6.834;2024-03-17T14:10:08;31.63;;;19.38;;
57025;SDS011;43961;52.940;6.834;2024-03-17T14:12:37;28.38;;;21.02;;
57025;SDS011;43961;52.940;6.834;2024-03-17T14:15:07;30.83;;;21.92;;
57025;SDS011;43961;52.940;6.834;2024-03-17T14:17:39;33.33;;;21.63;;
57025;SDS011;43961;52.940;6.834;2024-03-17T14:20:06;33.05;;;23.13;;
57025;SDS011;43961;52.940;6.834;2024-03-17T14:22:39;32.03;;;21.38;;
57025;SDS011;43961;52.940;6.834;2024-03-17T14:25:09;32.75;;;21.73;;
57025;SDS011;43961;52.940;6.834;2024-03-17T14:27:39;39.63;;;21.77;;
57025;SDS011;43961;52.940;6.834;2024-03-17T14:30:05;30.52;;;21.23;;
57025;SDS011;43961;52.940;6.834;2024-03-17T14:32:32;31.33;;;23.77;;
57025;SDS011;43961;52.940;6.834;2024-03-17T14:34:58;30.02;;;21.90;;
57025;SDS011;43961;52.940;6.834;2024-03-17T14:37:24;34.22;;;22.90;;
57025;SDS011;43961;52.940;6.834;2024-03-17T14:39:51;32.05;;;22.88;;
57025;SDS011;43961;52.940;6.834;2024-03-17T14:42:18;36.13;;;23.00;;
57025;SDS011;43961;52.940;6.834;2024-03-17T14:44:44;35.75;;;22.17;;
57025;SDS011;43961;52.940;6.834;2024-03-17T14:47:12;33.05;;;22.70;;
57025;SDS011;43961;52.940;6.834;2024-03-17T14:49:38;37.00;;;23.20;;
57025;SDS011;43961;52.940;6.834;2024-03-17T14:52:03;28.77;;;21.65;;
57025;SDS011;43961;52.940;6.834;2024-03-17T14:54:30;32.60;;;23.38;;